Time;durP1;ratioP1;P1;durP2;ratioP2;P2;SDS_P1;SDS_P2;PMS_P1;PMS_P2;Temp;Humidity;BMP_temperature;BMP_pressure;BME280_temperature;BME280_humidity;BME280_pressure;Samples;Min_cycle;Max_cycle;Signal;HPM_P1;HPM_P2
2021/08/19 00:02:14;;;;;;;14.37;12.90;;;;;;;16.27;80.80;100528.19;5039460;28;20181;-74
2021/08/19 00:04:40;;;;;;;13.80;12.40;;;;;;;16.10;81.26;100535.47;5039649;28;20185;-73
2021/08/19 00:07:06;;;;;;;14.50;12.80;;;;;;;16.20;81.11;100541.47;5022212;28;20181;-73
2021/08/19 00:09:31;;;;;;;13.77;12.13;;;;;;;16.39;80.56;100542.88;5039266;28;20392;-73
2021/08/19 00:11:58;;;;;;;14.90;13.33;;;;;;;16.47;79.73;100540.97;5039813;28;20206;-73
2021/08/19 00:14:24;;;;;;;14.00;12.60;;;;;;;16.43;80.04;100539.31;5039019;28;20162;-74
2021/08/19 00:16:49;;;;;;;16.40;13.50;;;;;;;16.32;80.12;100546.53;5039043;28;20413;-74
2021/08/19 00:19:14;;;;;;;15.20;13.60;;;;;;;16.25;80.96;100547.50;5039418;28;20462;-73
2021/08/19 00:21:39;;;;;;;16.37;13.20;;;;;;;16.09;80.81;100547.78;5039088;28;20174;-73
2021/08/19 00:24:05;;;;;;;14.20;12.70;;;;;;;16.27;80.26;100549.22;5038739;28;20227;-73
2021/08/19 00:26:30;;;;;;;14.87;12.17;;;;;;;16.30;80.35;100549.19;5039513;28;20162;-73
2021/08/19 00:28:56;;;;;;;14.23;12.83;;;;;;;16.36;80.34;100537.69;5038848;28;20620;-74
2021/08/19 00:31:22;;;;;;;14.77;12.20;;;;;;;16.19;80.31;100530.06;5038841;28;20489;-74
2021/08/19 00:33:49;;;;;;;12.93;11.67;;;;;;;16.11;80.95;100537.22;5039168;28;20162;-73
2021/08/19 00:36:14;;;;;;;14.10;12.70;;;;;;;16.35;79.69;100535.94;5038641;28;20695;-75
2021/08/19 00:38:39;;;;;;;14.93;13.33;;;;;;;16.15;80.03;100531.88;5038620;28;20502;-74
2021/08/19 00:41:05;;;;;;;17.20;13.03;;;;;;;16.14;80.24;100530.16;5039560;28;20210;-74
2021/08/19 00:43:33;;;;;;;14.80;13.20;;;;;;;16.23;79.73;100533.53;5038456;28;20270;-74
2021/08/19 00:45:59;;;;;;;14.40;13.00;;;;;;;15.96;80.66;100527.84;5020950;28;20166;-74
2021/08/19 00:48:24;;;;;;;14.87;13.40;;;;;;;16.05;80.32;100543.47;5039076;28;20831;-72
2021/08/19 00:50:49;;;;;;;15.27;13.20;;;;;;;15.94;80.53;100535.75;5038654;28;20166;-73
2021/08/19 00:53:17;;;;;;;14.83;13.27;;;;;;;16.04;80.57;100527.72;5038330;28;20663;-72
2021/08/19 00:55:43;;;;;;;15.57;13.37;;;;;;;15.92;80.84;100528.78;5038936;28;20159;-71
2021/08/19 00:58:08;;;;;;;15.80;13.53;;;;;;;15.76;80.92;100526.38;5038426;28;20490;-73
2021/08/19 01:00:34;;;;;;;17.23;13.90;;;;;;;15.73;81.00;100523.75;5038624;28;20174;-73
2021/08/19 01:03:00;;;;;;;15.03;13.53;;;;;;;16.00;80.47;100534.78;5021722;28;20162;-71
2021/08/19 01:05:30;;;;;;;16.23;14.10;;;;;;;16.10;79.41;100536.38;5038374;28;20174;-72
2021/08/19 01:07:57;;;;;;;16.47;13.27;;;;;;;15.98;79.54;100531.31;5038467;28;20740;-72
2021/08/19 01:10:22;;;;;;;16.83;13.53;;;;;;;15.83;80.46;100538.53;5038723;28;20394;-71
2021/08/19 01:12:48;;;;;;;14.70;13.30;;;;;;;15.99;80.30;100536.56;5038152;28;20412;-74
2021/08/19 01:15:14;;;;;;;14.00;12.70;;;;;;;16.19;79.03;100542.38;5038257;28;20173;-72
2021/08/19 01:17:39;;;;;;;14.20;12.80;;;;;;;16.09;79.25;100547.78;5038621;28;20167;-72
2021/08/19 01:20:06;;;;;;;14.27;12.83;;;;;;;16.40;78.22;100539.38;5038346;28;20449;-71
2021/08/19 01:22:32;;;;;;;14.50;12.90;;;;;;;16.12;78.92;100549.50;5038154;28;20178;-71
2021/08/19 01:24:57;;;;;;;14.10;12.70;;;;;;;16.25;77.82;100543.13;5037888;28;20457;-72
2021/08/19 01:27:22;;;;;;;14.23;12.83;;;;;;;16.53;77.27;100542.63;5037999;28;20409;-72
2021/08/19 01:29:49;;;;;;;13.07;11.83;;;;;;;16.21;77.57;100551.09;5021198;28;20163;-73
2021/08/19 01:32:14;;;;;;;13.70;12.30;;;;;;;16.26;77.70;100544.00;5038058;28;20173;-73
2021/08/19 01:34:40;;;;;;;13.00;11.70;;;;;;;16.18;77.08;100546.75;5037958;28;20785;-72
2021/08/19 01:37:06;;;;;;;23.30;12.33;;;;;;;16.04;77.69;100541.72;5038567;28;20232;-72
2021/08/19 01:39:32;;;;;;;13.67;12.37;;;;;;;16.14;77.97;100542.44;5037958;28;20198;-73
2021/08/19 01:41:57;;;;;;;12.97;11.50;;;;;;;16.16;77.26;100552.03;5037996;28;20389;-72
2021/08/19 01:44:23;;;;;;;13.67;12.27;;;;;;;16.16;77.10;100545.91;5038402;28;20439;-72
2021/08/19 01:46:58;;;;;;;13.30;11.90;;;;;;;15.97;76.91;100540.94;5037945;28;20170;-72
2021/08/19 01:49:31;;;;;;;13.37;11.80;;;;;;;16.00;77.16;100540.88;5037917;28;20217;-71
2021/08/19 01:51:58;;;;;;;13.83;11.53;;;;;;;16.13;76.25;100540.72;5037912;28;20412;-72
2021/08/19 01:54:24;;;;;;;12.50;11.40;;;;;;;16.25;75.99;100544.88;5037741;28;20415;-72
2021/08/19 01:56:49;;;;;;;15.10;11.23;;;;;;;16.21;76.14;100548.47;5020807;28;20740;-72
2021/08/19 01:59:14;;;;;;;13.30;11.47;;;;;;;16.00;77.53;100550.56;5039852;28;20463;-72
2021/08/19 02:01:40;;;;;;;11.63;10.63;;;;;;;16.40;75.68;100552.53;5042167;28;20158;-72
2021/08/19 02:04:05;;;;;;;12.17;10.97;;;;;;;16.33;75.40;100548.25;5041531;28;20532;-72
2021/08/19 02:06:30;;;;;;;12.60;11.30;;;;;;;15.96;76.80;100549.72;5041662;28;20174;-72
2021/08/19 02:08:56;;;;;;;12.70;10.77;;;;;;;16.19;76.00;100545.00;5041965;28;20159;-72
2021/08/19 02:11:21;;;;;;;12.50;11.20;;;;;;;16.14;76.44;100556.47;5041730;28;20170;-72
2021/08/19 02:13:47;;;;;;;12.70;11.50;;;;;;;16.44;75.28;100550.69;5041348;28;20220;-72
2021/08/19 02:16:12;;;;;;;13.17;11.67;;;;;;;16.26;76.43;100551.88;5041903;28;20194;-72
2021/08/19 02:18:38;;;;;;;13.40;11.37;;;;;;;16.16;76.22;100556.44;5041371;28;20209;-73
2021/08/19 02:21:03;;;;;;;14.60;12.20;;;;;;;16.03;76.79;100553.13;5041395;28;20189;-72
2021/08/19 02:23:28;;;;;;;13.57;12.20;;;;;;;16.31;76.24;100560.56;5041620;28;20454;-73
2021/08/19 02:25:54;;;;;;;18.53;12.03;;;;;;;16.06;76.89;100558.34;5041331;28;20167;-72
2021/08/19 02:28:19;;;;;;;15.30;12.50;;;;;;;16.36;76.11;100558.72;5041255;28;20173;-72
2021/08/19 02:30:44;;;;;;;13.53;12.23;;;;;;;16.23;76.31;100562.47;5041696;28;20182;-72
2021/08/19 02:33:10;;;;;;;16.13;13.83;;;;;;;16.06;77.28;100571.50;5041131;28;20178;-71
2021/08/19 02:35:35;;;;;;;13.67;12.37;;;;;;;15.90;78.17;100568.25;5041031;28;20260;-71
2021/08/19 02:38:06;;;;;;;14.33;12.93;;;;;;;16.13;77.53;100564.38;5024022;28;20190;-72
2021/08/19 02:40:32;;;;;;;16.97;13.17;;;;;;;16.26;77.39;100575.56;5040992;28;20169;-71
2021/08/19 02:42:57;;;;;;;15.27;13.87;;;;;;;16.19;78.45;100568.66;5040846;28;20463;-72
2021/08/19 02:45:22;;;;;;;15.77;14.07;;;;;;;16.04;79.10;100577.69;5041571;28;20376;-72
2021/08/19 02:47:48;;;;;;;18.17;14.83;;;;;;;15.72;80.97;100574.63;5040898;28;20181;-72
2021/08/19 02:50:14;;;;;;;16.10;14.50;;;;;;;15.83;80.34;100570.09;5040764;28;20456;-73
2021/08/19 02:52:39;;;;;;;17.87;15.10;;;;;;;15.91;80.54;100571.72;5041343;28;20170;-74
2021/08/19 02:55:06;;;;;;;15.60;14.00;;;;;;;15.78;80.96;100571.88;5040538;28;20655;-73
2021/08/19 02:57:32;;;;;;;17.63;14.73;;;;;;;15.85;80.17;100574.47;5040658;28;20170;-75
2021/08/19 02:59:57;;;;;;;16.60;14.20;;;;;;;16.00;79.89;100576.84;5041153;28;20467;-72
2021/08/19 03:02:22;;;;;;;16.07;14.47;;;;;;;15.98;79.87;100570.75;5040586;28;20167;-74
2021/08/19 03:04:48;;;;;;;17.67;14.80;;;;;;;16.29;79.09;100567.59;5040251;28;20543;-74
2021/08/19 03:07:14;;;;;;;16.90;15.23;;;;;;;16.43;78.60;100568.25;5040992;28;20437;-74
2021/08/19 03:09:39;;;;;;;18.33;16.53;;;;;;;16.36;79.17;100574.53;5039908;28;20417;-73
2021/08/19 03:12:04;;;;;;;19.33;15.63;;;;;;;16.31;79.76;100576.34;5040393;28;20185;-72
2021/08/19 03:14:31;;;;;;;19.07;16.67;;;;;;;16.45;79.18;100574.38;5040381;28;20166;-74
2021/08/19 03:16:56;;;;;;;16.57;14.77;;;;;;;15.66;80.87;100580.78;5040196;28;20224;-73
2021/08/19 03:19:21;;;;;;;19.00;14.37;;;;;;;15.81;81.29;100566.59;5040225;28;20457;-72
2021/08/19 03:21:46;;;;;;;11.57;10.47;;;;;;;15.57;80.96;100572.19;5040639;28;20617;-74
2021/08/19 03:24:13;;;;;;;9.83;8.87;;;;;;;15.48;80.57;100568.78;5039937;28;20218;-73
2021/08/19 03:26:38;;;;;;;9.90;8.80;;;;;;;15.74;79.89;100567.56;5040154;28;20194;-74
2021/08/19 03:29:03;;;;;;;9.73;8.80;;;;;;;16.00;78.57;100572.44;5023484;28;20552;-74
2021/08/19 03:31:29;;;;;;;9.70;8.70;;;;;;;15.88;79.47;100558.63;5040157;28;20173;-73
2021/08/19 03:33:54;;;;;;;8.70;7.80;;;;;;;15.66;79.32;100557.16;5040002;28;20162;-73
2021/08/19 03:36:20;;;;;;;7.93;7.23;;;;;;;15.76;78.77;100552.66;5040530;28;20162;-73
2021/08/19 03:38:45;;;;;;;8.90;6.87;;;;;;;15.88;78.13;100554.22;5039787;28;20217;-75
2021/08/19 03:41:11;;;;;;;6.97;6.23;;;;;;;15.77;79.23;100554.34;5039954;28;20508;-74
2021/08/19 03:43:37;;;;;;;7.87;6.60;;;;;;;15.64;79.72;100558.06;5040132;28;20170;-72
2021/08/19 03:46:02;;;;;;;8.10;7.30;;;;;;;15.80;79.45;100564.88;5039730;28;20821;-72
2021/08/19 03:48:28;;;;;;;10.23;7.47;;;;;;;15.77;79.72;100564.88;5039763;28;20499;-72
2021/08/19 03:50:53;;;;;;;10.40;7.63;;;;;;;15.62;80.27;100567.75;5040303;28;20162;-72
2021/08/19 03:53:18;;;;;;;8.70;7.80;;;;;;;15.80;80.00;100564.00;5039458;28;20181;-72
2021/08/19 03:55:45;;;;;;;10.53;9.43;;;;;;;15.47;80.79;100572.31;5039749;28;20170;-74
2021/08/19 03:58:10;;;;;;;10.17;9.13;;;;;;;15.82;79.72;100557.81;5040035;28;20191;-74
2021/08/19 04:00:35;;;;;;;10.00;9.00;;;;;;;15.88;79.66;100561.25;5039416;28;20432;-75
2021/08/19 04:03:00;;;;;;;9.77;8.60;;;;;;;15.96;78.74;100559.38;5039196;28;20492;-73
2021/08/19 04:05:26;;;;;;;10.63;9.53;;;;;;;15.87;79.67;100559.50;5040092;28;20213;-74
2021/08/19 04:07:51;;;;;;;12.90;9.30;;;;;;;15.81;79.56;100561.34;5039277;28;20205;-74
2021/08/19 04:10:18;;;;;;;12.93;10.63;;;;;;;15.86;79.27;100573.53;5039335;28;20178;-73
2021/08/19 04:12:44;;;;;;;11.43;10.00;;;;;;;15.88;80.08;100561.25;5039849;28;20167;-73
2021/08/19 04:15:10;;;;;;;11.60;10.10;;;;;;;15.66;80.31;100561.53;5039238;28;20415;-73
2021/08/19 04:17:35;;;;;;;10.83;9.70;;;;;;;15.62;80.31;100570.38;5039075;28;20461;-74
2021/08/19 04:20:00;;;;;;;11.63;9.10;;;;;;;15.58;80.83;100543.25;5039389;28;20462;-74
2021/08/19 04:22:26;;;;;;;10.57;8.90;;;;;;;16.04;78.77;100549.59;5038301;28;20182;-73
2021/08/19 04:24:51;;;;;;;12.63;9.60;;;;;;;16.03;79.02;100557.53;5021640;28;20253;-74
2021/08/19 04:27:16;;;;;;;12.80;9.60;;;;;;;15.89;79.60;100558.59;5039643;28;20166;-74
2021/08/19 04:29:42;;;;;;;11.43;10.33;;;;;;;15.74;80.16;100569.31;5038994;28;20539;-73
2021/08/19 04:32:07;;;;;;;12.70;10.63;;;;;;;15.86;80.43;100576.19;5038832;28;20166;-73
2021/08/19 04:34:33;;;;;;;12.03;11.00;;;;;;;16.29;78.53;100568.50;5039151;28;20193;-72
2021/08/19 04:36:58;;;;;;;12.10;10.80;;;;;;;15.75;79.71;100577.19;5038712;28;20257;-74
2021/08/19 04:39:23;;;;;;;12.90;10.83;;;;;;;16.07;79.08;100575.84;5038601;28;20210;-74
2021/08/19 04:41:50;;;;;;;11.73;10.60;;;;;;;15.95;79.48;100578.66;5039313;28;20194;-73
2021/08/19 04:44:16;;;;;;;11.53;10.13;;;;;;;15.87;79.50;100578.81;5038602;28;20181;-73
2021/08/19 04:46:41;;;;;;;11.23;9.63;;;;;;;15.93;79.12;100578.69;5038599;28;20492;-73
2021/08/19 04:49:06;;;;;;;10.20;9.23;;;;;;;15.97;79.19;100583.00;5038851;28;20520;-73
2021/08/19 04:51:35;;;;;;;10.93;9.80;;;;;;;16.04;78.89;100577.69;5038623;28;20174;-74
2021/08/19 04:54:04;;;;;;;12.37;9.40;;;;;;;16.14;78.27;100582.75;5038379;28;20472;-73
2021/08/19 04:56:36;;;;;;;10.23;9.33;;;;;;;16.22;77.83;100576.50;5039058;28;20372;-73
2021/08/19 04:59:01;;;;;;;10.47;9.57;;;;;;;16.02;79.29;100580.34;5039337;28;20460;-74
2021/08/19 05:01:27;;;;;;;11.37;10.40;;;;;;;16.14;78.65;100587.13;5039033;28;20413;-73
2021/08/19 05:03:52;;;;;;;10.90;9.77;;;;;;;15.99;79.71;100580.34;5038759;28;20258;-74
2021/08/19 05:06:17;;;;;;;11.50;10.40;;;;;;;16.27;79.23;100580.78;5038415;28;20189;-73
2021/08/19 05:08:42;;;;;;;12.67;11.37;;;;;;;16.27;78.85;100588.69;5038291;28;20181;-74
2021/08/19 05:11:08;;;;;;;12.90;11.70;;;;;;;16.02;79.91;100588.22;5038925;28;20173;-73
2021/08/19 05:13:33;;;;;;;13.57;12.27;;;;;;;16.12;79.77;100592.44;5037926;28;20444;-74
2021/08/19 05:15:58;;;;;;;14.90;13.40;;;;;;;16.04;79.75;100590.81;5038367;28;20260;-74
2021/08/19 05:18:25;;;;;;;14.20;12.80;;;;;;;16.45;79.06;100590.16;5038541;28;20220;-73
2021/08/19 05:20:51;;;;;;;14.30;13.00;;;;;;;16.13;79.38;100599.44;5038329;28;20166;-73
2021/08/19 05:23:16;;;;;;;13.63;12.30;;;;;;;16.01;80.25;100602.25;5037965;28;20466;-72
2021/08/19 05:25:42;;;;;;;17.37;13.90;;;;;;;16.21;79.61;100606.31;5018076;28;20627;-72
2021/08/19 05:28:07;;;;;;;14.83;13.40;;;;;;;16.35;79.02;100595.59;5018451;28;20212;-74
2021/08/19 05:30:32;;;;;;;16.50;13.47;;;;;;;16.57;78.16;100602.22;5018424;28;20539;-72
2021/08/19 05:32:57;;;;;;;15.10;13.50;;;;;;;16.61;78.41;100610.94;5020529;28;20178;-73
2021/08/19 05:35:23;;;;;;;17.00;13.13;;;;;;;16.11;79.81;100608.22;5022490;28;20171;-73
2021/08/19 05:37:48;;;;;;;14.97;13.27;;;;;;;16.69;77.48;100619.56;5021525;28;20174;-73
2021/08/19 05:40:14;;;;;;;17.57;12.63;;;;;;;16.54;77.74;100618.06;5023269;28;20163;-74
2021/08/19 05:42:39;;;;;;;13.67;12.23;;;;;;;16.69;77.45;100616.94;5022442;28;20179;-74
2021/08/19 05:45:05;;;;;;;14.50;12.87;;;;;;;16.74;77.77;100619.50;5021928;28;20167;-73
2021/08/19 05:47:30;;;;;;;13.17;11.97;;;;;;;16.36;78.50;100627.13;5022396;28;20171;-74
2021/08/19 05:49:56;;;;;;;13.50;12.20;;;;;;;16.90;76.67;100620.09;5022013;28;20241;-74
2021/08/19 05:52:21;;;;;;;13.20;11.90;;;;;;;16.83;77.21;100633.34;5022005;28;20274;-73
2021/08/19 05:54:46;;;;;;;12.97;11.63;;;;;;;16.37;78.74;100628.84;5022284;28;20506;-74
2021/08/19 05:57:13;;;;;;;15.97;11.17;;;;;;;16.72;77.64;100634.44;5021961;28;20567;-74
2021/08/19 05:59:38;;;;;;;17.23;12.00;;;;;;;16.61;78.22;100638.09;5021974;28;20260;-73
2021/08/19 06:02:04;;;;;;;13.93;12.37;;;;;;;16.58;79.09;100639.94;5022406;28;20392;-73
2021/08/19 06:04:29;;;;;;;13.37;12.00;;;;;;;16.83;78.02;100636.00;5026284;28;20171;-73
2021/08/19 06:06:54;;;;;;;14.37;12.87;;;;;;;16.54;79.06;100640.88;5022860;28;20237;-73
2021/08/19 06:09:20;;;;;;;12.97;11.63;;;;;;;16.81;77.83;100636.91;5022466;28;20163;-74
2021/08/19 06:11:45;;;;;;;12.73;11.43;;;;;;;17.31;76.40;100626.34;5021830;28;20542;-74
2021/08/19 06:14:10;;;;;;;13.00;11.50;;;;;;;17.55;75.88;100621.44;5021500;28;20181;-72
2021/08/19 06:16:36;;;;;;;12.73;10.90;;;;;;;17.48;75.71;100626.88;5022178;28;20175;-75
2021/08/19 06:19:02;;;;;;;18.37;11.40;;;;;;;17.59;75.65;100633.66;5021433;28;20198;-74
2021/08/19 06:21:28;;;;;;;11.40;10.27;;;;;;;17.22;76.67;100635.28;5021518;28;20167;-75
2021/08/19 06:23:53;;;;;;;11.70;10.50;;;;;;;17.45;75.40;100634.81;5025409;28;20470;-74
2021/08/19 06:26:18;;;;;;;13.60;10.17;;;;;;;17.47;74.96;100640.06;5041203;28;20478;-76
2021/08/19 06:28:44;;;;;;;12.60;11.27;;;;;;;17.51;75.07;100632.06;5023899;28;20170;-73
2021/08/19 06:31:09;;;;;;;11.00;9.90;;;;;;;17.40;75.61;100646.34;5038983;28;20181;-75
2021/08/19 06:33:34;;;;;;;10.67;9.60;;;;;;;17.23;75.93;100644.94;5040890;28;20166;-71
2021/08/19 06:35:59;;;;;;;11.67;10.57;;;;;;;17.50;75.52;100632.09;5041539;28;20547;-71
2021/08/19 06:38:25;;;;;;;12.03;9.70;;;;;;;17.13;75.83;100638.97;5040940;28;20194;-72
2021/08/19 06:40:50;;;;;;;12.97;9.90;;;;;;;17.22;75.47;100640.53;5040893;28;20206;-72
2021/08/19 06:43:15;;;;;;;10.63;9.53;;;;;;;17.42;75.42;100644.56;5041301;28;20208;-75
2021/08/19 06:45:41;;;;;;;12.43;10.63;;;;;;;17.45;74.82;100642.72;5039858;28;20202;-73
2021/08/19 06:48:06;;;;;;;11.30;10.17;;;;;;;17.66;74.23;100641.41;5040534;28;20189;-74
2021/08/19 06:50:32;;;;;;;10.20;9.23;;;;;;;17.57;74.74;100646.03;5041253;28;20442;-75
2021/08/19 06:52:57;;;;;;;13.47;10.77;;;;;;;17.61;74.36;100652.97;5040773;28;20178;-76
2021/08/19 06:55:23;;;;;;;12.70;11.50;;;;;;;17.26;75.47;100652.75;5040870;28;20481;-76
2021/08/19 06:57:48;;;;;;;10.43;9.33;;;;;;;17.03;75.97;100649.72;5041169;28;20609;-72
2021/08/19 07:00:13;;;;;;;11.43;9.87;;;;;;;17.30;75.08;100654.44;5040516;28;20222;-73
2021/08/19 07:02:39;;;;;;;11.27;9.93;;;;;;;17.10;75.52;100652.22;5040502;28;20178;-74
2021/08/19 07:05:07;;;;;;;9.60;8.60;;;;;;;17.10;75.51;100657.47;5040639;28;20166;-74
2021/08/19 07:07:33;;;;;;;10.50;8.67;;;;;;;17.20;74.71;100652.91;5040431;28;20182;-73
2021/08/19 07:10:08;;;;;;;11.03;9.50;;;;;;;17.40;74.37;100657.78;5040350;28;20437;-73
2021/08/19 07:12:34;;;;;;;8.73;7.93;;;;;;;17.54;74.49;100657.50;5040323;28;20420;-73
2021/08/19 07:15:00;;;;;;;9.23;7.67;;;;;;;17.06;75.34;100660.19;5040266;28;20409;-74
2021/08/19 07:17:25;;;;;;;10.00;8.10;;;;;;;16.95;76.29;100660.38;5040765;28;20424;-74
2021/08/19 07:19:50;;;;;;;9.53;8.47;;;;;;;17.14;75.72;100653.88;5040323;28;20202;-73
2021/08/19 07:22:16;;;;;;;8.70;7.90;;;;;;;17.68;74.83;100659.84;5040229;28;20170;-74
2021/08/19 07:24:41;;;;;;;10.00;9.03;;;;;;;17.87;73.79;100659.44;5040197;28;20256;-73
2021/08/19 07:27:06;;;;;;;10.33;8.60;;;;;;;18.28;72.11;100652.38;5040132;28;20224;-75
2021/08/19 07:29:32;;;;;;;10.57;7.70;;;;;;;18.17;72.04;100660.53;5040199;28;20444;-73
2021/08/19 07:31:57;;;;;;;9.63;7.50;;;;;;;17.99;72.98;100656.56;5040149;28;20174;-74
2021/08/19 07:34:22;;;;;;;7.90;7.20;;;;;;;18.27;72.54;100653.31;5040048;28;20528;-75
2021/08/19 07:36:47;;;;;;;6.97;6.30;;;;;;;18.09;72.88;100652.81;5040383;28;20166;-76
2021/08/19 07:39:15;;;;;;;7.10;6.40;;;;;;;18.37;72.13;100654.78;5039602;28;20210;-73
2021/08/19 07:41:40;;;;;;;6.43;5.83;;;;;;;19.16;69.55;100658.13;5039855;28;20166;-78
2021/08/19 07:44:06;;;;;;;6.03;5.53;;;;;;;19.32;68.83;100662.06;5040306;28;20427;-75
2021/08/19 07:46:33;;;;;;;7.40;6.50;;;;;;;19.04;69.42;100658.44;5039418;28;20420;-74
2021/08/19 07:48:59;;;;;;;9.70;7.27;;;;;;;19.13;69.29;100664.34;5039454;28;20593;-78
2021/08/19 07:51:24;;;;;;;7.17;6.10;;;;;;;18.53;70.32;100660.56;5040013;28;20452;-75
2021/08/19 07:53:50;;;;;;;7.13;6.43;;;;;;;18.33;70.59;100666.34;5039526;28;20174;-75
2021/08/19 07:56:15;;;;;;;7.17;6.00;;;;;;;18.67;69.95;100670.78;5039438;28;20174;-75
2021/08/19 07:58:40;;;;;;;6.17;5.57;;;;;;;18.34;70.01;100665.44;5039679;28;20190;-76
2021/08/19 08:01:06;;;;;;;10.10;6.93;;;;;;;18.22;71.11;100678.91;5039815;28;20206;-75
2021/08/19 08:03:32;;;;;;;6.77;5.97;;;;;;;18.39;70.60;100675.88;5039411;28;20178;-75
2021/08/19 08:05:58;;;;;;;8.57;7.67;;;;;;;18.92;69.85;100675.50;5039735;28;20186;-75
2021/08/19 08:08:23;;;;;;;7.93;6.80;;;;;;;19.38;67.71;100681.31;5042953;28;20416;-75
2021/08/19 08:10:48;;;;;;;6.93;6.23;;;;;;;19.11;67.98;100684.66;5043964;28;20192;-75
2021/08/19 08:13:14;;;;;;;10.63;7.83;;;;;;;19.32;67.84;100677.94;5044224;28;20201;-74
2021/08/19 08:15:40;;;;;;;7.27;6.57;;;;;;;18.83;69.16;100681.81;5042489;28;20166;-76
2021/08/19 08:18:06;;;;;;;7.30;6.23;;;;;;;18.61;70.29;100678.88;5042875;28;20206;-77
2021/08/19 08:20:32;;;;;;;7.00;6.40;;;;;;;18.61;70.96;100681.50;5044956;28;20420;-74
2021/08/19 08:22:58;;;;;;;9.90;7.40;;;;;;;18.60;70.15;100685.06;5039069;28;20702;-76
2021/08/19 08:25:23;;;;;;;6.93;6.23;;;;;;;18.41;71.24;100684.63;5038977;28;20453;-75
2021/08/19 08:27:57;;;;;;;7.40;6.37;;;;;;;18.27;71.93;100684.97;5039710;28;20173;-75
2021/08/19 08:30:22;;;;;;;8.10;7.30;;;;;;;18.65;71.76;100680.53;5022245;28;20425;-75
2021/08/19 08:32:47;;;;;;;8.83;7.97;;;;;;;18.48;71.46;100688.84;5038583;28;20421;-76
2021/08/19 08:35:13;;;;;;;7.47;6.77;;;;;;;18.18;71.66;100694.84;5039027;28;20173;-73
2021/08/19 08:37:38;;;;;;;6.90;6.30;;;;;;;18.42;71.56;100694.28;5038657;28;20170;-71
2021/08/19 08:40:04;;;;;;;7.80;6.97;;;;;;;18.36;71.67;100695.31;5038384;28;20217;-70
2021/08/19 08:42:29;;;;;;;7.20;6.20;;;;;;;18.51;70.92;100694.94;5038744;28;20341;-71
2021/08/19 08:44:55;;;;;;;7.50;6.77;;;;;;;18.27;71.59;100703.44;5004881;28;20176;-71
2021/08/19 08:47:21;;;;;;;7.80;7.10;;;;;;;18.17;72.56;100705.41;5038649;28;20192;-73
2021/08/19 08:49:46;;;;;;;9.90;8.57;;;;;;;17.97;73.79;100711.13;5038949;28;20186;-70
2021/08/19 08:52:12;;;;;;;7.43;6.40;;;;;;;17.94;73.07;100706.78;5021276;28;20420;-72
2021/08/19 08:54:37;;;;;;;8.43;6.63;;;;;;;18.20;72.60;100710.63;5038754;28;20547;-75
2021/08/19 08:57:03;;;;;;;8.70;7.80;;;;;;;18.56;71.67;100715.94;5039571;28;20162;-72
2021/08/19 08:59:28;;;;;;;8.73;7.20;;;;;;;18.37;72.50;100712.84;5038150;28;20587;-73
2021/08/19 09:01:54;;;;;;;8.23;7.37;;;;;;;18.88;71.44;100713.44;5038497;28;20170;-75
2021/08/19 09:04:19;;;;;;;8.30;7.40;;;;;;;18.77;71.31;100717.19;5024493;28;20430;-74
2021/08/19 09:06:45;;;;;;;8.37;6.63;;;;;;;18.50;72.15;100726.66;5021718;28;20837;-75
2021/08/19 09:09:24;;;;;;;9.70;7.90;;;;;;;18.15;73.69;100730.97;5038507;28;20169;-75
2021/08/19 09:12:01;;;;;;;9.47;8.30;;;;;;;17.90;76.04;100741.13;5040865;28;20215;-73
2021/08/19 09:14:29;;;;;;;11.93;8.60;;;;;;;17.72;76.35;100735.31;5038078;28;20459;-73
2021/08/19 09:16:54;;;;;;;8.50;7.53;;;;;;;17.65;76.68;100744.28;5038160;28;20555;-77
2021/08/19 09:19:22;;;;;;;9.57;7.63;;;;;;;17.93;76.00;100743.75;5038198;28;20799;-76
2021/08/19 09:21:52;;;;;;;9.93;8.00;;;;;;;17.88;76.75;100742.94;5038483;28;20180;-75
2021/08/19 09:24:20;;;;;;;9.23;7.27;;;;;;;17.76;76.04;100742.28;5037820;28;20449;-73
2021/08/19 09:26:47;;;;;;;7.97;7.17;;;;;;;17.62;77.21;100741.69;5038372;28;20417;-73
2021/08/19 09:29:13;;;;;;;9.40;7.27;;;;;;;17.71;75.13;100732.72;5038610;28;20397;-74
2021/08/19 09:31:38;;;;;;;8.20;7.30;;;;;;;17.54;74.87;100735.72;5038324;28;20405;-73
2021/08/19 09:34:03;;;;;;;8.37;7.33;;;;;;;17.36;76.36;100739.53;5038436;28;20825;-76
2021/08/19 09:36:30;;;;;;;8.50;7.57;;;;;;;17.42;76.81;100737.66;5038839;28;20158;-74
2021/08/19 09:38:56;;;;;;;10.20;7.03;;;;;;;18.01;75.76;100731.28;5020392;28;20226;-74
2021/08/19 09:41:21;;;;;;;9.13;8.27;;;;;;;18.12;74.89;100729.25;5037842;28;20420;-73
2021/08/19 09:43:47;;;;;;;8.80;7.87;;;;;;;17.84;76.02;100731.56;5038071;28;20479;-74
2021/08/19 09:46:14;;;;;;;8.87;8.10;;;;;;;18.12;75.94;100728.41;5037755;28;20241;-75
2021/08/19 09:48:40;;;;;;;9.67;8.17;;;;;;;18.11;76.03;100726.66;5038316;28;20869;-73
2021/08/19 09:51:20;;;;;;;8.23;7.53;;;;;;;18.11;76.08;100732.78;5038130;28;20413;-73
2021/08/19 09:53:53;;;;;;;9.43;8.03;;;;;;;18.28;75.61;100734.19;5037629;28;20413;-75
2021/08/19 09:56:30;;;;;;;9.00;8.13;;;;;;;18.54;75.38;100730.97;5037619;28;20818;-76
2021/08/19 09:59:22;;;;;;;10.20;8.83;;;;;;;18.15;76.26;100733.59;5037563;28;20551;-75
2021/08/19 10:01:48;;;;;;;8.83;8.03;;;;;;;18.18;76.04;100738.81;5037827;28;20436;-77
2021/08/19 10:04:15;;;;;;;9.53;8.27;;;;;;;17.95;76.89;100748.06;5037604;28;20417;-76
2021/08/19 10:06:41;;;;;;;9.43;8.53;;;;;;;18.24;75.60;100748.34;5037616;28;20705;-78
2021/08/19 10:09:06;;;;;;;9.33;8.17;;;;;;;18.00;76.16;100750.63;5037999;28;20547;-82
2021/08/19 10:11:33;;;;;;;9.03;7.40;;;;;;;17.92;76.46;100747.28;5037710;28;20440;-77
2021/08/19 10:13:59;;;;;;;9.03;7.87;;;;;;;17.69;75.83;100743.31;5037455;28;20171;-76
2021/08/19 10:16:25;;;;;;;8.70;7.80;;;;;;;17.59;76.02;100749.66;5037963;28;20798;-77
2021/08/19 10:18:51;;;;;;;9.50;8.17;;;;;;;17.60;76.15;100744.38;5037655;28;20456;-79
2021/08/19 10:21:17;;;;;;;10.97;7.90;;;;;;;17.70;75.94;100742.41;5024372;28;20425;-81
2021/08/19 10:23:43;;;;;;;10.83;8.43;;;;;;;18.40;73.27;100744.50;5007919;28;20463;-78
2021/08/19 10:26:12;;;;;;;8.50;7.23;;;;;;;18.64;70.75;100739.53;5041202;28;20228;-78
2021/08/19 10:29:10;;;;;;;9.93;8.30;;;;;;;18.85;70.29;100735.50;5024134;28;20666;-80
2021/08/19 10:31:48;;;;;;;9.27;8.27;;;;;;;18.87;70.77;100732.81;4970832;28;20468;-75
2021/08/19 10:34:16;;;;;;;11.07;8.93;;;;;;;18.39;72.34;100740.09;5041024;28;20467;-74
2021/08/19 10:36:49;;;;;;;13.07;8.27;;;;;;;18.55;70.52;100734.44;5041037;28;20543;-80
2021/08/19 10:39:25;;;;;;;9.73;8.17;;;;;;;19.01;69.82;100742.16;5040733;28;20477;-78
2021/08/19 10:41:52;;;;;;;13.00;8.40;;;;;;;18.76;70.48;100739.22;5040994;28;20408;-79
2021/08/19 10:44:17;;;;;;;14.20;8.33;;;;;;;18.84;69.72;100739.91;5040969;28;20766;-78
2021/08/19 10:46:49;;;;;;;10.70;8.03;;;;;;;19.02;68.55;100737.72;5040910;28;20512;-77
2021/08/19 10:49:30;;;;;;;11.60;9.47;;;;;;;19.11;69.12;100731.38;5040622;28;20458;-75
2021/08/19 10:52:03;;;;;;;14.57;7.60;;;;;;;18.97;69.44;100727.28;5040711;28;20802;-77
2021/08/19 10:54:34;;;;;;;8.97;7.40;;;;;;;18.77;70.02;100732.19;5023471;28;20471;-76
2021/08/19 10:57:31;;;;;;;8.67;7.40;;;;;;;18.90;69.71;100735.41;5040680;28;20497;-75
2021/08/19 10:59:58;;;;;;;9.90;8.37;;;;;;;19.54;68.41;100730.19;5040674;28;20534;-76
2021/08/19 11:02:48;;;;;;;9.83;8.60;;;;;;;19.58;68.63;100721.28;5040610;28;20713;-76
2021/08/19 11:05:36;;;;;;;9.00;8.10;;;;;;;19.71;68.28;100727.06;5040491;28;20420;-74
2021/08/19 11:08:03;;;;;;;8.57;7.67;;;;;;;20.34;65.57;100721.72;5040483;28;20416;-75
2021/08/19 11:10:32;;;;;;;9.63;8.50;;;;;;;21.12;63.34;100726.25;5023261;28;20413;-75
2021/08/19 11:13:11;;;;;;;8.47;7.27;;;;;;;21.06;62.23;100729.09;5040223;28;20672;-74
2021/08/19 11:15:48;;;;;;;7.73;6.93;;;;;;;20.98;63.11;100728.50;5040295;28;20862;-75